sensor_id;sensor_type;location;lat;lon;timestamp;P1;durP1;ratioP1;P2;durP2;ratioP2
54191;SDS011;40101;53.002;6.488;2022-07-23T00:01:37;5.57;;;2.78;;
54191;SDS011;40101;53.002;6.488;2022-07-23T00:04:03;3.25;;;2.72;;
54191;SDS011;40101;53.002;6.488;2022-07-23T00:06:29;5.72;;;2.65;;
54191;SDS011;40101;53.002;6.488;2022-07-23T00:08:54;7.60;;;2.88;;
54191;SDS011;40101;53.002;6.488;2022-07-23T00:11:20;4.82;;;3.00;;
54191;SDS011;40101;53.002;6.488;2022-07-23T00:13:47;4.50;;;3.03;;
54191;SDS011;40101;53.002;6.488;2022-07-23T00:16:13;4.53;;;3.33;;
54191;SDS011;40101;53.002;6.488;2022-07-23T00:18:38;6.60;;;3.60;;
54191;SDS011;40101;53.002;6.488;2022-07-23T00:21:04;5.63;;;3.60;;
54191;SDS011;40101;53.002;6.488;2022-07-23T00:23:30;7.15;;;4.10;;
54191;SDS011;40101;53.002;6.488;2022-07-23T00:25:58;4.25;;;3.67;;
54191;SDS011;40101;53.002;6.488;2022-07-23T00:28:23;4.40;;;3.58;;
54191;SDS011;40101;53.002;6.488;2022-07-23T00:30:49;5.00;;;3.08;;
54191;SDS011;40101;53.002;6.488;2022-07-23T00:33:15;3.45;;;2.90;;
54191;SDS011;40101;53.002;6.488;2022-07-23T00:35:40;3.63;;;2.95;;
54191;SDS011;40101;53.002;6.488;2022-07-23T00:38:07;3.20;;;2.92;;
54191;SDS011;40101;53.002;6.488;2022-07-23T00:40:34;2.08;;;1.88;;
54191;SDS011;40101;53.002;6.488;2022-07-23T00:43:01;2.17;;;1.98;;
54191;SDS011;40101;53.002;6.488;2022-07-23T00:45:27;4.07;;;1.70;;
54191;SDS011;40101;53.002;6.488;2022-07-23T00:47:53;2.22;;;1.90;;
54191;SDS011;40101;53.002;6.488;2022-07-23T00:50:19;2.50;;;2.30;;
54191;SDS011;40101;53.002;6.488;2022-07-23T00:52:44;8.18;;;2.83;;
54191;SDS011;40101;53.002;6.488;2022-07-23T00:55:11;4.47;;;3.67;;
54191;SDS011;40101;53.002;6.488;2022-07-23T00:57:38;8.43;;;3.58;;
54191;SDS011;40101;53.002;6.488;2022-07-23T01:00:06;5.18;;;3.63;;
54191;SDS011;40101;53.002;6.488;2022-07-23T01:02:33;6.25;;;4.78;;
54191;SDS011;40101;53.002;6.488;2022-07-23T01:04:59;5.13;;;3.67;;
54191;SDS011;40101;53.002;6.488;2022-07-23T01:07:24;6.60;;;4.53;;
54191;SDS011;40101;53.002;6.488;2022-07-23T01:09:50;6.03;;;3.70;;
54191;SDS011;40101;53.002;6.488;2022-07-23T01:12:16;5.25;;;4.03;;
54191;SDS011;40101;53.002;6.488;2022-07-23T01:14:42;7.80;;;3.70;;
54191;SDS011;40101;53.002;6.488;2022-07-23T01:17:07;5.78;;;3.78;;
54191;SDS011;40101;53.002;6.488;2022-07-23T01:19:33;5.35;;;4.22;;
54191;SDS011;40101;53.002;6.488;2022-07-23T01:22:00;4.85;;;4.28;;
54191;SDS011;40101;53.002;6.488;2022-07-23T01:24:27;7.55;;;3.55;;
54191;SDS011;40101;53.002;6.488;2022-07-23T01:26:53;5.43;;;3.60;;
54191;SDS011;40101;53.002;6.488;2022-07-23T01:29:18;9.32;;;4.35;;
54191;SDS011;40101;53.002;6.488;2022-07-23T01:31:46;8.00;;;4.10;;
54191;SDS011;40101;53.002;6.488;2022-07-23T01:34:12;8.30;;;3.83;;
54191;SDS011;40101;53.002;6.488;2022-07-23T01:36:38;5.28;;;4.78;;
54191;SDS011;40101;53.002;6.488;2022-07-23T01:39:04;2.90;;;2.60;;
54191;SDS011;40101;53.002;6.488;2022-07-23T01:41:32;5.43;;;2.97;;
54191;SDS011;40101;53.002;6.488;2022-07-23T01:43:58;4.95;;;4.03;;
54191;SDS011;40101;53.002;6.488;2022-07-23T01:46:24;5.88;;;4.18;;
54191;SDS011;40101;53.002;6.488;2022-07-23T01:48:49;7.28;;;3.65;;
54191;SDS011;40101;53.002;6.488;2022-07-23T01:51:17;4.90;;;3.65;;
54191;SDS011;40101;53.002;6.488;2022-07-23T01:53:43;6.05;;;3.60;;
54191;SDS011;40101;53.002;6.488;2022-07-23T01:56:09;7.25;;;3.65;;
54191;SDS011;40101;53.002;6.488;2022-07-23T01:58:34;4.05;;;3.30;;
54191;SDS011;40101;53.002;6.488;2022-07-23T02:01:00;4.60;;;3.13;;
54191;SDS011;40101;53.002;6.488;2022-07-23T02:03:26;8.02;;;3.63;;
54191;SDS011;40101;53.002;6.488;2022-07-23T02:05:51;4.75;;;3.60;;
54191;SDS011;40101;53.002;6.488;2022-07-23T02:08:17;5.22;;;2.65;;
54191;SDS011;40101;53.002;6.488;2022-07-23T02:10:43;4.05;;;3.65;;
54191;SDS011;40101;53.002;6.488;2022-07-23T02:13:09;4.00;;;3.67;;
54191;SDS011;40101;53.002;6.488;2022-07-23T02:15:34;6.95;;;5.38;;
54191;SDS011;40101;53.002;6.488;2022-07-23T02:18:00;12.85;;;6.25;;
54191;SDS011;40101;53.002;6.488;2022-07-23T02:20:26;7.32;;;5.40;;
54191;SDS011;40101;53.002;6.488;2022-07-23T02:22:54;5.88;;;4.35;;
54191;SDS011;40101;53.002;6.488;2022-07-23T02:25:19;8.93;;;2.90;;
54191;SDS011;40101;53.002;6.488;2022-07-23T02:27:45;28.15;;;3.85;;
54191;SDS011;40101;53.002;6.488;2022-07-23T02:30:10;6.88;;;3.03;;
54191;SDS011;40101;53.002;6.488;2022-07-23T02:32:36;12.05;;;3.08;;
54191;SDS011;40101;53.002;6.488;2022-07-23T02:35:02;5.57;;;3.45;;
54191;SDS011;40101;53.002;6.488;2022-07-23T02:37:29;4.38;;;2.63;;
54191;SDS011;40101;53.002;6.488;2022-07-23T02:39:54;9.65;;;2.60;;
54191;SDS011;40101;53.002;6.488;2022-07-23T02:42:20;3.42;;;2.35;;
54191;SDS011;40101;53.002;6.488;2022-07-23T02:44:46;2.58;;;2.38;;
54191;SDS011;40101;53.002;6.488;2022-07-23T02:47:12;2.42;;;2.22;;
54191;SDS011;40101;53.002;6.488;2022-07-23T02:49:37;2.40;;;2.20;;
54191;SDS011;40101;53.002;6.488;2022-07-23T02:52:03;7.63;;;2.75;;
54191;SDS011;40101;53.002;6.488;2022-07-23T02:54:29;5.45;;;2.35;;
54191;SDS011;40101;53.002;6.488;2022-07-23T02:56:54;4.13;;;2.67;;
54191;SDS011;40101;53.002;6.488;2022-07-23T02:59:20;4.03;;;3.03;;
54191;SDS011;40101;53.002;6.488;2022-07-23T03:01:45;5.38;;;3.53;;
54191;SDS011;40101;53.002;6.488;2022-07-23T03:04:11;5.22;;;4.05;;
54191;SDS011;40101;53.002;6.488;2022-07-23T03:06:37;4.75;;;3.10;;
54191;SDS011;40101;53.002;6.488;2022-07-23T03:09:04;4.85;;;3.38;;
54191;SDS011;40101;53.002;6.488;2022-07-23T03:11:30;3.88;;;2.95;;
54191;SDS011;40101;53.002;6.488;2022-07-23T03:13:55;4.03;;;2.85;;
54191;SDS011;40101;53.002;6.488;2022-07-23T03:16:21;3.10;;;2.50;;
54191;SDS011;40101;53.002;6.488;2022-07-23T03:18:47;5.35;;;2.65;;
54191;SDS011;40101;53.002;6.488;2022-07-23T03:21:12;5.88;;;2.67;;
54191;SDS011;40101;53.002;6.488;2022-07-23T03:23:38;2.50;;;2.30;;
54191;SDS011;40101;53.002;6.488;2022-07-23T03:26:03;2.30;;;2.10;;
54191;SDS011;40101;53.002;6.488;2022-07-23T03:28:29;5.18;;;2.70;;
54191;SDS011;40101;53.002;6.488;2022-07-23T03:30:55;4.07;;;3.00;;
54191;SDS011;40101;53.002;6.488;2022-07-23T03:33:22;4.28;;;2.47;;
54191;SDS011;40101;53.002;6.488;2022-07-23T03:35:48;2.60;;;2.40;;
54191;SDS011;40101;53.002;6.488;2022-07-23T03:38:14;2.88;;;2.58;;
54191;SDS011;40101;53.002;6.488;2022-07-23T03:40:40;2.42;;;2.22;;
54191;SDS011;40101;53.002;6.488;2022-07-23T03:43:06;3.17;;;2.55;;
54191;SDS011;40101;53.002;6.488;2022-07-23T03:45:32;4.38;;;2.97;;
54191;SDS011;40101;53.002;6.488;2022-07-23T03:47:58;3.00;;;2.65;;
54191;SDS011;40101;53.002;6.488;2022-07-23T03:50:25;6.32;;;3.10;;
54191;SDS011;40101;53.002;6.488;2022-07-23T03:52:51;3.65;;;2.83;;
54191;SDS011;40101;53.002;6.488;2022-07-23T03:55:16;4.75;;;3.05;;
54191;SDS011;40101;53.002;6.488;2022-07-23T03:57:42;2.67;;;2.47;;
54191;SDS011;40101;53.002;6.488;2022-07-23T04:00:08;4.85;;;3.00;;
54191;SDS011;40101;53.002;6.488;2022-07-23T04:02:36;5.13;;;2.92;;
54191;SDS011;40101;53.002;6.488;2022-07-23T04:05:02;2.42;;;2.17;;
54191;SDS011;40101;53.002;6.488;2022-07-23T04:07:28;3.95;;;2.13;;
54191;SDS011;40101;53.002;6.488;2022-07-23T04:09:53;3.55;;;2.10;;
54191;SDS011;40101;53.002;6.488;2022-07-23T04:12:19;2.15;;;1.92;;
54191;SDS011;40101;53.002;6.488;2022-07-23T04:14:45;2.05;;;1.80;;
54191;SDS011;40101;53.002;6.488;2022-07-23T04:17:11;2.83;;;2.35;;
54191;SDS011;40101;53.002;6.488;2022-07-23T04:19:37;3.63;;;2.53;;
54191;SDS011;40101;53.002;6.488;2022-07-23T04:22:05;3.63;;;3.28;;
54191;SDS011;40101;53.002;6.488;2022-07-23T04:24:32;4.38;;;2.70;;
54191;SDS011;40101;53.002;6.488;2022-07-23T04:26:57;3.05;;;2.45;;
54191;SDS011;40101;53.002;6.488;2022-07-23T04:29:23;5.15;;;2.30;;
54191;SDS011;40101;53.002;6.488;2022-07-23T04:31:49;2.97;;;1.85;;
54191;SDS011;40101;53.002;6.488;2022-07-23T04:34:14;5.18;;;2.47;;
54191;SDS011;40101;53.002;6.488;2022-07-23T04:36:40;3.13;;;2.47;;
54191;SDS011;40101;53.002;6.488;2022-07-23T04:39:06;2.50;;;1.88;;
54191;SDS011;40101;53.002;6.488;2022-07-23T04:41:32;2.20;;;2.00;;
54191;SDS011;40101;53.002;6.488;2022-07-23T04:43:59;2.85;;;2.40;;
54191;SDS011;40101;53.002;6.488;2022-07-23T04:46:25;3.60;;;3.30;;
54191;SDS011;40101;53.002;6.488;2022-07-23T04:48:53;4.10;;;3.10;;
54191;SDS011;40101;53.002;6.488;2022-07-23T04:51:19;4.88;;;3.28;;
54191;SDS011;40101;53.002;6.488;2022-07-23T04:53:44;5.35;;;3.25;;
54191;SDS011;40101;53.002;6.488;2022-07-23T04:56:10;3.22;;;2.92;;
54191;SDS011;40101;53.002;6.488;2022-07-23T04:58:35;5.45;;;2.90;;
54191;SDS011;40101;53.002;6.488;2022-07-23T05:01:01;8.70;;;3.28;;
54191;SDS011;40101;53.002;6.488;2022-07-23T05:03:27;5.72;;;3.20;;
54191;SDS011;40101;53.002;6.488;2022-07-23T05:05:53;5.22;;;3.80;;
54191;SDS011;40101;53.002;6.488;2022-07-23T05:08:18;5.22;;;3.80;;
54191;SDS011;40101;53.002;6.488;2022-07-23T05:10:44;4.30;;;3.75;;
54191;SDS011;40101;53.002;6.488;2022-07-23T05:13:10;7.07;;;3.80;;
54191;SDS011;40101;53.002;6.488;2022-07-23T05:15:36;4.38;;;3.67;;
54191;SDS011;40101;53.002;6.488;2022-07-23T05:18:01;4.35;;;3.65;;
54191;SDS011;40101;53.002;6.488;2022-07-23T05:20:27;5.32;;;3.53;;
54191;SDS011;40101;53.002;6.488;2022-07-23T05:22:53;8.00;;;3.80;;
54191;SDS011;40101;53.002;6.488;2022-07-23T05:25:18;5.43;;;3.83;;
54191;SDS011;40101;53.002;6.488;2022-07-23T05:27:44;6.88;;;4.82;;
54191;SDS011;40101;53.002;6.488;2022-07-23T05:30:10;6.22;;;4.72;;
54191;SDS011;40101;53.002;6.488;2022-07-23T05:32:36;4.72;;;4.05;;
54191;SDS011;40101;53.002;6.488;2022-07-23T05:35:04;3.95;;;3.33;;
54191;SDS011;40101;53.002;6.488;2022-07-23T05:37:31;6.13;;;3.05;;
54191;SDS011;40101;53.002;6.488;2022-07-23T05:40:00;3.00;;;2.67;;
54191;SDS011;40101;53.002;6.488;2022-07-23T05:42:31;2.63;;;2.40;;
54191;SDS011;40101;53.002;6.488;2022-07-23T05:44:56;5.38;;;2.80;;
54191;SDS011;40101;53.002;6.488;2022-07-23T05:47:22;3.20;;;2.47;;
54191;SDS011;40101;53.002;6.488;2022-07-23T05:49:48;3.90;;;2.65;;
54191;SDS011;40101;53.002;6.488;2022-07-23T05:52:13;2.20;;;1.95;;
54191;SDS011;40101;53.002;6.488;2022-07-23T05:54:39;6.00;;;2.15;;
54191;SDS011;40101;53.002;6.488;2022-07-23T05:57:05;3.85;;;2.00;;
54191;SDS011;40101;53.002;6.488;2022-07-23T05:59:30;3.45;;;1.98;;
54191;SDS011;40101;53.002;6.488;2022-07-23T06:01:56;2.35;;;1.80;;
54191;SDS011;40101;53.002;6.488;2022-07-23T06:04:21;2.60;;;2.00;;
54191;SDS011;40101;53.002;6.488;2022-07-23T06:06:47;2.25;;;1.55;;
54191;SDS011;40101;53.002;6.488;2022-07-23T06:09:13;3.05;;;1.50;;
54191;SDS011;40101;53.002;6.488;2022-07-23T06:11:39;1.90;;;1.60;;
54191;SDS011;40101;53.002;6.488;2022-07-23T06:14:05;1.65;;;1.20;;
54191;SDS011;40101;53.002;6.488;2022-07-23T06:16:31;1.80;;;1.25;;
54191;SDS011;40101;53.002;6.488;2022-07-23T06:18:57;2.13;;;1.38;;
54191;SDS011;40101;53.002;6.488;2022-07-23T06:21:22;2.50;;;1.10;;
54191;SDS011;40101;53.002;6.488;2022-07-23T06:23:48;2.45;;;1.30;;
54191;SDS011;40101;53.002;6.488;2022-07-23T06:26:14;2.15;;;0.98;;
54191;SDS011;40101;53.002;6.488;2022-07-23T06:28:40;1.77;;;0.90;;
54191;SDS011;40101;53.002;6.488;2022-07-23T06:31:05;4.72;;;1.10;;
54191;SDS011;40101;53.002;6.488;2022-07-23T06:33:31;4.20;;;0.98;;
54191;SDS011;40101;53.002;6.488;2022-07-23T06:35:59;1.35;;;0.80;;
54191;SDS011;40101;53.002;6.488;2022-07-23T06:38:25;3.55;;;0.90;;
54191;SDS011;40101;53.002;6.488;2022-07-23T06:40:53;1.90;;;0.70;;
54191;SDS011;40101;53.002;6.488;2022-07-23T06:43:18;1.90;;;0.80;;
54191;SDS011;40101;53.002;6.488;2022-07-23T06:45:44;4.35;;;1.15;;
54191;SDS011;40101;53.002;6.488;2022-07-23T06:48:10;2.65;;;0.82;;
54191;SDS011;40101;53.002;6.488;2022-07-23T06:50:35;1.65;;;0.60;;
54191;SDS011;40101;53.002;6.488;2022-07-23T06:53:01;1.65;;;0.65;;
54191;SDS011;40101;53.002;6.488;2022-07-23T06:55:27;0.77;;;0.43;;
54191;SDS011;40101;53.002;6.488;2022-07-23T06:57:52;0.80;;;0.30;;
54191;SDS011;40101;53.002;6.488;2022-07-23T07:05:51;0.40;;;0.30;;
54191;SDS011;40101;53.002;6.488;2022-07-23T07:08:17;0.30;;;0.20;;
54191;SDS011;40101;53.002;6.488;2022-07-23T07:10:42;2.15;;;0.30;;
54191;SDS011;40101;53.002;6.488;2022-07-23T07:13:08;1.05;;;0.30;;
54191;SDS011;40101;53.002;6.488;2022-07-23T07:15:34;2.50;;;0.40;;
54191;SDS011;40101;53.002;6.488;2022-07-23T07:17:59;2.20;;;0.60;;
54191;SDS011;40101;53.002;6.488;2022-07-23T07:20:25;0.43;;;0.17;;
54191;SDS011;40101;53.002;6.488;2022-07-23T07:22:50;1.65;;;0.20;;
54191;SDS011;40101;53.002;6.488;2022-07-23T07:25:16;2.10;;;0.30;;
54191;SDS011;40101;53.002;6.488;2022-07-23T07:27:42;0.50;;;0.10;;
54191;SDS011;40101;53.002;6.488;2022-07-23T07:30:09;0.75;;;0.30;;
54191;SDS011;40101;53.002;6.488;2022-07-23T07:32:36;0.73;;;0.10;;
54191;SDS011;40101;53.002;6.488;2022-07-23T07:35:05;0.88;;;0.30;;
54191;SDS011;40101;53.002;6.488;2022-07-23T07:37:31;0.68;;;0.30;;
54191;SDS011;40101;53.002;6.488;2022-07-23T07:39:56;0.73;;;0.30;;
54191;SDS011;40101;53.002;6.488;2022-07-23T07:42:22;0.52;;;0.20;;
54191;SDS011;40101;53.002;6.488;2022-07-23T07:44:48;1.42;;;0.20;;
54191;SDS011;40101;53.002;6.488;2022-07-23T07:47:14;0.68;;;0.20;;
54191;SDS011;40101;53.002;6.488;2022-07-23T07:49:40;1.30;;;0.20;;
54191;SDS011;40101;53.002;6.488;2022-07-23T07:52:07;0.68;;;0.10;;
54191;SDS011;40101;53.002;6.488;2022-07-23T07:54:33;2.63;;;0.30;;
54191;SDS011;40101;53.002;6.488;2022-07-23T07:56:59;2.90;;;0.50;;
54191;SDS011;40101;53.002;6.488;2022-07-23T07:59:25;0.57;;;0.15;;
54191;SDS011;40101;53.002;6.488;2022-07-23T08:01:51;1.70;;;0.30;;
54191;SDS011;40101;53.002;6.488;2022-07-23T08:04:17;0.73;;;0.17;;
54191;SDS011;40101;53.002;6.488;2022-07-23T08:06:43;1.08;;;0.20;;
54191;SDS011;40101;53.002;6.488;2022-07-23T08:09:08;0.68;;;0.10;;
54191;SDS011;40101;53.002;6.488;2022-07-23T08:11:34;0.65;;;0.20;;
54191;SDS011;40101;53.002;6.488;2022-07-23T08:14:00;1.25;;;0.28;;
54191;SDS011;40101;53.002;6.488;2022-07-23T08:16:25;0.47;;;0.20;;
54191;SDS011;40101;53.002;6.488;2022-07-23T08:18:51;2.03;;;0.22;;
54191;SDS011;40101;53.002;6.488;2022-07-23T08:21:16;0.60;;;0.17;;
54191;SDS011;40101;53.002;6.488;2022-07-23T08:23:42;0.82;;;0.10;;
54191;SDS011;40101;53.002;6.488;2022-07-23T08:26:08;0.35;;;0.20;;
54191;SDS011;40101;53.002;6.488;2022-07-23T08:28:33;0.70;;;0.20;;
54191;SDS011;40101;53.002;6.488;2022-07-23T08:30:59;1.65;;;0.43;;
54191;SDS011;40101;53.002;6.488;2022-07-23T08:33:25;0.85;;;0.28;;
54191;SDS011;40101;53.002;6.488;2022-07-23T08:35:51;1.40;;;0.45;;
54191;SDS011;40101;53.002;6.488;2022-07-23T08:38:21;0.88;;;0.45;;
54191;SDS011;40101;53.002;6.488;2022-07-23T08:40:51;0.43;;;0.20;;
54191;SDS011;40101;53.002;6.488;2022-07-23T08:43:22;0.20;;;0.20;;
54191;SDS011;40101;53.002;6.488;2022-07-23T08:45:51;0.65;;;0.20;;
54191;SDS011;40101;53.002;6.488;2022-07-23T08:48:18;0.60;;;0.17;;
54191;SDS011;40101;53.002;6.488;2022-07-23T08:50:47;0.52;;;0.20;;
54191;SDS011;40101;53.002;6.488;2022-07-23T08:53:15;0.98;;;0.20;;
54191;SDS011;40101;53.002;6.488;2022-07-23T08:55:55;0.77;;;0.17;;
54191;SDS011;40101;53.002;6.488;2022-07-23T08:58:23;0.35;;;0.10;;
54191;SDS011;40101;53.002;6.488;2022-07-23T09:00:49;0.75;;;0.20;;
54191;SDS011;40101;53.002;6.488;2022-07-23T09:03:18;1.17;;;0.20;;
54191;SDS011;40101;53.002;6.488;2022-07-23T09:05:45;0.30;;;0.10;;
54191;SDS011;40101;53.002;6.488;2022-07-23T09:08:12;0.28;;;0.20;;
54191;SDS011;40101;53.002;6.488;2022-07-23T09:10:49;0.88;;;0.20;;
54191;SDS011;40101;53.002;6.488;2022-07-23T09:18:34;1.45;;;0.40;;
54191;SDS011;40101;53.002;6.488;2022-07-23T09:21:06;2.17;;;0.40;;
54191;SDS011;40101;53.002;6.488;2022-07-23T09:26:27;2.65;;;0.40;;
54191;SDS011;40101;53.002;6.488;2022-07-23T09:31:22;1.20;;;0.30;;
54191;SDS011;40101;53.002;6.488;2022-07-23T09:33:49;0.73;;;0.30;;
54191;SDS011;40101;53.002;6.488;2022-07-23T09:36:15;1.25;;;0.40;;
54191;SDS011;40101;53.002;6.488;2022-07-23T09:38:48;1.00;;;0.20;;
54191;SDS011;40101;53.002;6.488;2022-07-23T09:41:15;0.40;;;0.30;;
54191;SDS011;40101;53.002;6.488;2022-07-23T09:43:41;1.20;;;0.20;;
54191;SDS011;40101;53.002;6.488;2022-07-23T09:46:26;1.10;;;0.40;;
54191;SDS011;40101;53.002;6.488;2022-07-23T09:48:53;0.40;;;0.30;;
54191;SDS011;40101;53.002;6.488;2022-07-23T09:51:21;0.60;;;0.22;;
54191;SDS011;40101;53.002;6.488;2022-07-23T09:53:57;3.17;;;0.50;;
54191;SDS011;40101;53.002;6.488;2022-07-23T09:56:22;0.77;;;0.30;;
54191;SDS011;40101;53.002;6.488;2022-07-23T09:58:49;1.02;;;0.30;;
54191;SDS011;40101;53.002;6.488;2022-07-23T10:01:34;1.98;;;0.30;;
54191;SDS011;40101;53.002;6.488;2022-07-23T10:04:00;0.93;;;0.40;;
54191;SDS011;40101;53.002;6.488;2022-07-23T10:06:26;0.65;;;0.30;;
54191;SDS011;40101;53.002;6.488;2022-07-23T10:08:54;0.95;;;0.40;;
54191;SDS011;40101;53.002;6.488;2022-07-23T10:11:24;1.25;;;0.38;;
54191;SDS011;40101;53.002;6.488;2022-07-23T10:13:52;2.25;;;0.20;;
54191;SDS011;40101;53.002;6.488;2022-07-23T10:16:27;6.82;;;1.17;;
54191;SDS011;40101;53.002;6.488;2022-07-23T10:18:53;1.50;;;0.30;;
54191;SDS011;40101;53.002;6.488;2022-07-23T10:21:36;0.40;;;0.22;;
54191;SDS011;40101;53.002;6.488;2022-07-23T10:27:25;0.60;;;0.30;;
54191;SDS011;40101;53.002;6.488;2022-07-23T10:30:39;1.05;;;0.45;;
54191;SDS011;40101;53.002;6.488;2022-07-23T10:36:23;1.65;;;0.40;;
54191;SDS011;40101;53.002;6.488;2022-07-23T10:41:33;1.48;;;0.50;;
54191;SDS011;40101;53.002;6.488;2022-07-23T10:44:37;1.02;;;0.47;;
54191;SDS011;40101;53.002;6.488;2022-07-23T10:47:03;1.13;;;0.68;;
54191;SDS011;40101;53.002;6.488;2022-07-23T10:49:35;2.05;;;0.40;;
54191;SDS011;40101;53.002;6.488;2022-07-23T10:55:38;0.90;;;0.22;;
54191;SDS011;40101;53.002;6.488;2022-07-23T10:57:46;0.43;;;0.32;;
54191;SDS011;40101;53.002;6.488;2022-07-23T11:00:14;2.75;;;0.65;;
54191;SDS011;40101;53.002;6.488;2022-07-23T11:02:43;0.68;;;0.40;;
54191;SDS011;40101;53.002;6.488;2022-07-23T11:05:12;0.75;;;0.30;;
54191;SDS011;40101;53.002;6.488;2022-07-23T11:10:35;2.20;;;0.60;;
54191;SDS011;40101;53.002;6.488;2022-07-23T11:32:03;1.88;;;0.40;;
54191;SDS011;40101;53.002;6.488;2022-07-23T11:34:43;2.38;;;0.40;;
54191;SDS011;40101;53.002;6.488;2022-07-23T11:37:35;1.58;;;0.60;;
54191;SDS011;40101;53.002;6.488;2022-07-23T11:40:05;1.00;;;0.57;;
54191;SDS011;40101;53.002;6.488;2022-07-23T11:42:36;3.08;;;1.02;;
54191;SDS011;40101;53.002;6.488;2022-07-23T11:45:16;2.67;;;0.73;;
54191;SDS011;40101;53.002;6.488;2022-07-23T11:47:41;1.02;;;0.50;;
54191;SDS011;40101;53.002;6.488;2022-07-23T11:50:07;2.75;;;1.08;;
54191;SDS011;40101;53.002;6.488;2022-07-23T11:52:33;1.25;;;0.45;;
54191;SDS011;40101;53.002;6.488;2022-07-23T11:55:03;1.52;;;0.75;;
54191;SDS011;40101;53.002;6.488;2022-07-23T11:57:40;4.95;;;0.90;;
54191;SDS011;40101;53.002;6.488;2022-07-23T12:00:08;1.33;;;0.82;;
54191;SDS011;40101;53.002;6.488;2022-07-23T12:02:35;0.57;;;0.47;;
54191;SDS011;40101;53.002;6.488;2022-07-23T12:05:05;0.70;;;0.50;;
54191;SDS011;40101;53.002;6.488;2022-07-23T12:10:01;1.35;;;0.63;;
54191;SDS011;40101;53.002;6.488;2022-07-23T12:12:51;1.75;;;0.90;;
54191;SDS011;40101;53.002;6.488;2022-07-23T12:15:22;2.58;;;0.95;;
54191;SDS011;40101;53.002;6.488;2022-07-23T12:17:54;1.58;;;0.65;;
54191;SDS011;40101;53.002;6.488;2022-07-23T12:20:24;1.33;;;0.80;;
54191;SDS011;40101;53.002;6.488;2022-07-23T12:22:52;2.63;;;0.88;;
54191;SDS011;40101;53.002;6.488;2022-07-23T12:25:22;2.15;;;0.73;;
54191;SDS011;40101;53.002;6.488;2022-07-23T12:30:53;3.33;;;0.80;;
54191;SDS011;40101;53.002;6.488;2022-07-23T12:33:28;3.22;;;1.00;;
54191;SDS011;40101;53.002;6.488;2022-07-23T12:35:59;2.33;;;0.75;;
54191;SDS011;40101;53.002;6.488;2022-07-23T12:38:35;2.50;;;1.25;;
54191;SDS011;40101;53.002;6.488;2022-07-23T12:41:08;0.50;;;0.50;;
54191;SDS011;40101;53.002;6.488;2022-07-23T12:43:38;1.33;;;0.63;;
54191;SDS011;40101;53.002;6.488;2022-07-23T12:46:06;1.42;;;0.40;;
54191;SDS011;40101;53.002;6.488;2022-07-23T12:48:38;1.77;;;0.73;;
54191;SDS011;40101;53.002;6.488;2022-07-23T12:54:09;1.85;;;0.98;;
54191;SDS011;40101;53.002;6.488;2022-07-23T12:56:39;1.90;;;0.60;;
54191;SDS011;40101;53.002;6.488;2022-07-23T12:59:09;3.05;;;0.77;;
54191;SDS011;40101;53.002;6.488;2022-07-23T13:01:42;2.85;;;0.77;;
54191;SDS011;40101;53.002;6.488;2022-07-23T13:04:22;0.85;;;0.45;;
54191;SDS011;40101;53.002;6.488;2022-07-23T13:06:52;1.13;;;0.60;;
54191;SDS011;40101;53.002;6.488;2022-07-23T13:09:21;1.70;;;0.57;;
54191;SDS011;40101;53.002;6.488;2022-07-23T13:11:48;2.15;;;0.65;;
54191;SDS011;40101;53.002;6.488;2022-07-23T13:14:16;1.25;;;0.60;;
54191;SDS011;40101;53.002;6.488;2022-07-23T13:16:44;2.78;;;0.55;;
54191;SDS011;40101;53.002;6.488;2022-07-23T13:19:10;2.85;;;1.33;;
54191;SDS011;40101;53.002;6.488;2022-07-23T13:21:36;1.75;;;0.68;;
54191;SDS011;40101;53.002;6.488;2022-07-23T13:24:02;1.67;;;0.90;;
54191;SDS011;40101;53.002;6.488;2022-07-23T13:26:27;5.00;;;0.80;;
54191;SDS011;40101;53.002;6.488;2022-07-23T13:28:53;1.38;;;0.77;;
54191;SDS011;40101;53.002;6.488;2022-07-23T13:31:19;3.28;;;0.90;;
54191;SDS011;40101;53.002;6.488;2022-07-23T13:33:45;2.97;;;0.88;;
54191;SDS011;40101;53.002;6.488;2022-07-23T13:36:11;0.80;;;0.60;;
54191;SDS011;40101;53.002;6.488;2022-07-23T13:38:36;1.15;;;0.90;;
54191;SDS011;40101;53.002;6.488;2022-07-23T13:41:03;1.95;;;0.80;;
54191;SDS011;40101;53.002;6.488;2022-07-23T13:43:29;1.75;;;0.70;;
54191;SDS011;40101;53.002;6.488;2022-07-23T13:45:55;2.20;;;0.60;;
54191;SDS011;40101;53.002;6.488;2022-07-23T13:48:21;1.02;;;0.68;;
54191;SDS011;40101;53.002;6.488;2022-07-23T13:50:48;1.35;;;0.70;;
54191;SDS011;40101;53.002;6.488;2022-07-23T13:53:15;1.10;;;0.63;;
54191;SDS011;40101;53.002;6.488;2022-07-23T13:55:43;1.05;;;0.63;;
54191;SDS011;40101;53.002;6.488;2022-07-23T13:58:09;2.88;;;1.35;;
54191;SDS011;40101;53.002;6.488;2022-07-23T14:00:36;1.85;;;0.73;;
54191;SDS011;40101;53.002;6.488;2022-07-23T14:03:04;1.13;;;0.85;;
54191;SDS011;40101;53.002;6.488;2022-07-23T14:05:29;2.83;;;0.80;;
54191;SDS011;40101;53.002;6.488;2022-07-23T14:07:55;8.23;;;1.35;;
54191;SDS011;40101;53.002;6.488;2022-07-23T14:10:21;3.42;;;0.55;;
54191;SDS011;40101;53.002;6.488;2022-07-23T14:12:47;1.20;;;0.80;;
54191;SDS011;40101;53.002;6.488;2022-07-23T14:15:14;0.88;;;0.68;;
54191;SDS011;40101;53.002;6.488;2022-07-23T14:17:40;2.88;;;0.75;;
54191;SDS011;40101;53.002;6.488;2022-07-23T14:20:08;1.83;;;0.70;;
54191;SDS011;40101;53.002;6.488;2022-07-23T14:22:35;1.73;;;0.75;;
54191;SDS011;40101;53.002;6.488;2022-07-23T14:25:01;1.40;;;0.60;;
54191;SDS011;40101;53.002;6.488;2022-07-23T14:27:28;2.92;;;0.80;;
54191;SDS011;40101;53.002;6.488;2022-07-23T14:29:54;2.05;;;0.93;;
54191;SDS011;40101;53.002;6.488;2022-07-23T14:32:20;1.30;;;0.80;;
54191;SDS011;40101;53.002;6.488;2022-07-23T14:34:47;1.08;;;0.75;;
54191;SDS011;40101;53.002;6.488;2022-07-23T14:37:13;1.15;;;0.70;;
54191;SDS011;40101;53.002;6.488;2022-07-23T14:39:40;1.33;;;0.68;;
54191;SDS011;40101;53.002;6.488;2022-07-23T14:42:07;1.75;;;1.00;;
54191;SDS011;40101;53.002;6.488;2022-07-23T14:44:33;0.85;;;0.60;;
54191;SDS011;40101;53.002;6.488;2022-07-23T14:46:59;1.33;;;0.68;;
54191;SDS011;40101;53.002;6.488;2022-07-23T14:49:26;2.50;;;0.80;;
54191;SDS011;40101;53.002;6.488;2022-07-23T14:51:52;1.40;;;0.60;;
54191;SDS011;40101;53.002;6.488;2022-07-23T14:54:18;2.40;;;1.20;;
54191;SDS011;40101;53.002;6.488;2022-07-23T14:56:44;2.60;;;0.88;;
54191;SDS011;40101;53.002;6.488;2022-07-23T14:59:10;2.22;;;1.00;;
54191;SDS011;40101;53.002;6.488;2022-07-23T15:01:37;1.17;;;0.65;;
54191;SDS011;40101;53.002;6.488;2022-07-23T15:04:03;2.53;;;0.73;;
54191;SDS011;40101;53.002;6.488;2022-07-23T15:06:29;1.40;;;0.80;;
54191;SDS011;40101;53.002;6.488;2022-07-23T15:08:55;3.70;;;0.63;;
54191;SDS011;40101;53.002;6.488;2022-07-23T15:11:21;0.93;;;0.55;;
54191;SDS011;40101;53.002;6.488;2022-07-23T15:13:47;1.40;;;0.52;;
54191;SDS011;40101;53.002;6.488;2022-07-23T15:16:12;1.17;;;0.60;;
54191;SDS011;40101;53.002;6.488;2022-07-23T15:18:38;2.15;;;0.60;;
54191;SDS011;40101;53.002;6.488;2022-07-23T15:21:04;1.75;;;0.73;;
54191;SDS011;40101;53.002;6.488;2022-07-23T15:23:30;2.05;;;0.93;;
54191;SDS011;40101;53.002;6.488;2022-07-23T15:25:56;0.95;;;0.80;;
54191;SDS011;40101;53.002;6.488;2022-07-23T15:28:23;0.82;;;0.47;;
54191;SDS011;40101;53.002;6.488;2022-07-23T15:30:51;2.30;;;0.80;;
54191;SDS011;40101;53.002;6.488;2022-07-23T15:33:18;1.10;;;0.60;;
54191;SDS011;40101;53.002;6.488;2022-07-23T15:35:44;5.03;;;0.77;;
54191;SDS011;40101;53.002;6.488;2022-07-23T15:38:10;2.42;;;0.60;;
54191;SDS011;40101;53.002;6.488;2022-07-23T15:40:36;2.28;;;0.82;;
54191;SDS011;40101;53.002;6.488;2022-07-23T15:43:02;1.80;;;0.60;;
54191;SDS011;40101;53.002;6.488;2022-07-23T15:45:29;4.20;;;0.80;;
54191;SDS011;40101;53.002;6.488;2022-07-23T15:47:56;1.85;;;0.55;;